Time;durP1;ratioP1;P1;durP2;ratioP2;P2;SDS_P1;SDS_P2;PMS_P1;PMS_P2;Temp;Humidity;BMP_temperature;BMP_pressure;BME280_temperature;BME280_humidity;BME280_pressure;Samples;Min_cycle;Max_cycle;Signal;HPM_P1;HPM_P2
2022/02/11 00:01:54;;;;;;;;;;;5.80;99.90;;;;;;5197982;27;43924;-81
2022/02/11 00:05:01;;;;;;;;;;;5.80;99.90;;;;;;5197232;27;43377;-81
2022/02/11 00:07:10;;;;;;;;;;;5.80;99.90;;;;;;5216479;27;44044;-81
2022/02/11 00:09:39;;;;;;;;;;;5.80;99.90;;;;;;5197495;27;43544;-81
2022/02/11 00:12:06;;;;;;;;;;;5.80;99.90;;;;;;5215859;27;44483;-81
2022/02/11 00:14:42;;;;;;;;;;;5.80;99.90;;;;;;5197188;27;43207;-81
2022/02/11 00:17:12;;;;;;;;;;;5.80;99.90;;;;;;5217342;27;20038;-81
2022/02/11 00:19:39;;;;;;;;;;;5.70;99.90;;;;;;5215808;27;44512;-81
2022/02/11 00:22:07;;;;;;;;;;;5.70;99.90;;;;;;5196945;27;44644;-81
2022/02/11 00:24:34;;;;;;;;;;;5.70;99.90;;;;;;5197305;27;43212;-81
2022/02/11 00:32:44;;;;;;;;;;;5.70;99.90;;;;;;5216455;27;44459;-81
2022/02/11 00:38:20;;;;;;;;;;;5.70;99.90;;;;;;5129957;28;44376;-80
2022/02/11 00:46:16;;;;;;;;;;;5.60;99.90;;;;;;5215883;27;44044;-81
2022/02/11 01:02:28;;;;;;;;;;;5.60;99.90;;;;;;5215881;27;43407;-81
2022/02/11 01:04:55;;;;;;;;;;;5.60;99.90;;;;;;5197241;27;43978;-81
2022/02/11 01:07:23;;;;;;;;;;;5.50;99.90;;;;;;5216219;27;43156;-81
2022/02/11 01:09:50;;;;;;;;;;;5.50;99.90;;;;;;5196730;27;44198;-81
2022/02/11 01:12:17;;;;;;;;;;;5.60;99.90;;;;;;5196512;27;42726;-81
2022/02/11 01:14:51;;;;;;;;;;;5.50;99.90;;;;;;5216069;27;44769;-81
2022/02/11 01:27:40;;;;;;;;;;;5.50;99.90;;;;;;5216234;27;43959;-81
2022/02/11 01:36:00;;;;;;;;;;;5.50;99.90;;;;;;5216175;27;43915;-81
2022/02/11 01:51:59;;;;;;;;;;;5.50;99.90;;;;;;5216126;27;43939;-81
2022/02/11 02:57:14;;;;;;;;;;;5.20;99.90;;;;;;5215914;27;44309;-81
2022/02/11 03:49:26;;;;;;;;;;;5.20;99.90;;;;;;5216567;27;43529;-81
2022/02/11 04:20:38;;;;;;;;;;;5.10;99.90;;;;;;5216495;27;44656;-81
2022/02/11 04:55:17;;;;;;;;;;;5.10;99.90;;;;;;5215904;27;43862;-81
2022/02/11 05:00:30;;;;;;;;;;;5.10;99.90;;;;;;5216178;27;43196;-81
2022/02/11 05:02:59;;;;;;;;;;;5.10;99.90;;;;;;5197064;27;43241;-81
2022/02/11 05:05:26;;;;;;;;;;;5.10;99.90;;;;;;5197170;27;43207;-81
2022/02/11 05:07:53;;;;;;;;;;;5.10;99.90;;;;;;5215652;27;43533;-81
2022/02/11 05:10:21;;;;;;;;;;;5.10;99.90;;;;;;5215595;27;43925;-81
2022/02/11 05:12:48;;;;;;;;;;;5.10;99.90;;;;;;5215551;27;42706;-81
2022/02/11 05:15:15;;;;;;;;;;;5.10;99.90;;;;;;5215596;27;43018;-81
2022/02/11 05:17:51;;;;;;;;;;;5.10;99.90;;;;;;5215458;27;44284;-81
2022/02/11 05:20:18;;;;;;;;;;;5.10;99.90;;;;;;5196939;27;42333;-81
2022/02/11 05:22:46;;;;;;;;;;;5.10;99.90;;;;;;5197594;27;20317;-81
2022/02/11 05:25:13;;;;;;;;;;;5.10;99.90;;;;;;5196664;27;42569;-81
2022/02/11 05:27:40;;;;;;;;;;;5.10;99.90;;;;;;5197303;27;45372;-81
2022/02/11 05:30:07;;;;;;;;;;;5.10;99.90;;;;;;5197176;27;43229;-81
2022/02/11 05:32:34;;;;;;;;;;;5.10;99.90;;;;;;5196811;27;44127;-81
2022/02/11 05:35:02;;;;;;;;;;;5.10;99.90;;;;;;5197053;27;45697;-81
2022/02/11 05:37:29;;;;;;;;;;;5.10;99.90;;;;;;5196491;27;44650;-81
2022/02/11 05:39:56;;;;;;;;;;;5.10;99.90;;;;;;5196485;27;44717;-81
2022/02/11 05:42:23;;;;;;;;;;;5.10;99.90;;;;;;5197311;27;43790;-81
2022/02/11 05:44:50;;;;;;;;;;;5.10;99.90;;;;;;5196370;27;44759;-81
2022/02/11 05:47:17;;;;;;;;;;;5.00;99.90;;;;;;5196721;27;44127;-81
2022/02/11 05:49:44;;;;;;;;;;;5.10;99.90;;;;;;5196529;27;44056;-81
2022/02/11 05:52:14;;;;;;;;;;;5.10;99.90;;;;;;5197677;27;43927;-81
2022/02/11 05:54:41;;;;;;;;;;;5.10;99.90;;;;;;5196568;27;43160;-81
2022/02/11 05:57:08;;;;;;;;;;;5.10;99.90;;;;;;5197031;27;44571;-81
2022/02/11 05:59:35;;;;;;;;;;;5.10;99.90;;;;;;5215131;27;44984;-81
2022/02/11 06:02:02;;;;;;;;;;;5.10;99.90;;;;;;5196125;27;44100;-81
2022/02/11 06:04:29;;;;;;;;;;;5.10;99.90;;;;;;5196282;27;42260;-81
2022/02/11 06:06:58;;;;;;;;;;;5.10;99.90;;;;;;5215208;27;42991;-81
2022/02/11 06:09:25;;;;;;;;;;;5.10;99.90;;;;;;5197206;27;43526;-81
2022/02/11 06:11:52;;;;;;;;;;;5.00;99.90;;;;;;5196326;27;42671;-81
2022/02/11 06:14:20;;;;;;;;;;;5.00;99.90;;;;;;5196448;27;44549;-80
2022/02/11 06:16:47;;;;;;;;;;;5.00;99.90;;;;;;5196333;27;42714;-81
2022/02/11 06:19:15;;;;;;;;;;;5.00;99.90;;;;;;5197070;27;44126;-81
2022/02/11 06:21:42;;;;;;;;;;;5.10;99.90;;;;;;5196913;27;44791;-80
2022/02/11 06:24:09;;;;;;;;;;;5.10;99.90;;;;;;5196891;27;43480;-80
2022/02/11 06:26:36;;;;;;;;;;;5.10;99.90;;;;;;5196340;27;42921;-80
2022/02/11 06:29:03;;;;;;;;;;;5.00;99.90;;;;;;5196895;27;46242;-80
2022/02/11 06:31:33;;;;;;;;;;;5.00;99.90;;;;;;5196258;27;42777;-80
2022/02/11 06:34:00;;;;;;;;;;;5.00;99.90;;;;;;5196242;27;44219;-80
2022/02/11 06:36:27;;;;;;;;;;;5.00;99.90;;;;;;5196895;27;43221;-80
2022/02/11 06:38:54;;;;;;;;;;;5.00;99.90;;;;;;5215002;27;43329;-80
2022/02/11 06:41:21;;;;;;;;;;;5.00;99.90;;;;;;5196277;27;43122;-80
2022/02/11 06:43:48;;;;;;;;;;;5.00;99.90;;;;;;5215236;27;43022;-80
2022/02/11 06:46:17;;;;;;;;;;;5.10;99.90;;;;;;5215211;27;43231;-80
2022/02/11 06:48:44;;;;;;;;;;;5.00;99.90;;;;;;5196202;27;44249;-80
2022/02/11 06:51:11;;;;;;;;;;;5.10;99.90;;;;;;5196139;27;45199;-80
2022/02/11 06:53:39;;;;;;;;;;;5.00;99.90;;;;;;5214958;27;43318;-80
2022/02/11 06:56:06;;;;;;;;;;;5.00;99.90;;;;;;5195979;27;45624;-80
2022/02/11 06:58:33;;;;;;;;;;;5.00;99.90;;;;;;5214940;27;43885;-80
2022/02/11 07:01:01;;;;;;;;;;;5.00;99.90;;;;;;5196002;27;46137;-80
2022/02/11 07:03:28;;;;;;;;;;;5.00;99.90;;;;;;5196111;27;44312;-80
2022/02/11 07:05:58;;;;;;;;;;;5.00;99.90;;;;;;5196070;27;45621;-80
2022/02/11 07:08:25;;;;;;;;;;;5.00;99.90;;;;;;5215100;27;42697;-80
2022/02/11 07:10:52;;;;;;;;;;;5.00;99.90;;;;;;5197298;27;44357;-80
2022/02/11 07:13:21;;;;;;;;;;;5.00;99.90;;;;;;5197552;27;43961;-80
2022/02/11 07:15:48;;;;;;;;;;;5.00;99.90;;;;;;5197512;27;43305;-80
2022/02/11 07:18:15;;;;;;;;;;;5.00;99.90;;;;;;5198121;27;43589;-80
2022/02/11 07:20:42;;;;;;;;;;;5.00;99.90;;;;;;5198147;27;44747;-80
2022/02/11 07:23:09;;;;;;;;;;;5.00;99.90;;;;;;5216200;27;45772;-80
2022/02/11 07:25:36;;;;;;;;;;;5.00;99.90;;;;;;5216386;27;44234;-80
2022/02/11 07:28:03;;;;;;;;;;;5.00;99.90;;;;;;5198018;27;44376;-81
2022/02/11 07:30:30;;;;;;;;;;;5.00;99.90;;;;;;5197593;27;43793;-81
2022/02/11 07:32:58;;;;;;;;;;;5.00;99.90;;;;;;5216415;27;43823;-81
2022/02/11 07:35:25;;;;;;;;;;;5.00;99.90;;;;;;5216832;27;44230;-80
2022/02/11 07:37:52;;;;;;;;;;;5.00;99.90;;;;;;5198026;27;43224;-81
2022/02/11 07:40:20;;;;;;;;;;;5.00;99.90;;;;;;5216358;27;42615;-80
2022/02/11 07:42:51;;;;;;;;;;;5.00;99.90;;;;;;5216108;27;43106;-81
2022/02/11 07:45:20;;;;;;;;;;;5.00;99.90;;;;;;5216950;27;44265;-81
2022/02/11 07:47:48;;;;;;;;;;;5.00;99.90;;;;;;5197593;27;43530;-81
2022/02/11 07:50:15;;;;;;;;;;;5.00;99.90;;;;;;5198006;27;44107;-81
2022/02/11 07:52:42;;;;;;;;;;;5.00;99.90;;;;;;5197276;27;42344;-81
2022/02/11 07:55:09;;;;;;;;;;;5.00;99.90;;;;;;5197496;27;42679;-81
2022/02/11 07:57:36;;;;;;;;;;;4.90;99.90;;;;;;5197710;27;46144;-81
2022/02/11 08:00:05;;;;;;;;;;;5.00;99.90;;;;;;5197337;27;43294;-80
2022/02/11 08:02:34;;;;;;;;;;;4.90;99.90;;;;;;5215955;27;43251;-81
2022/02/11 08:05:02;;;;;;;;;;;4.90;99.90;;;;;;5197256;27;44034;-81
2022/02/11 08:07:29;;;;;;;;;;;4.90;99.90;;;;;;5216092;27;44260;-81
2022/02/11 08:09:56;;;;;;;;;;;4.90;99.90;;;;;;5197891;27;43965;-81
2022/02/11 08:12:23;;;;;;;;;;;4.90;99.90;;;;;;5216789;27;43954;-81
2022/02/11 08:14:50;;;;;;;;;;;5.00;99.90;;;;;;5216729;27;44319;-81
2022/02/11 08:17:21;;;;;;;;;;;4.90;99.90;;;;;;5198221;27;44281;-81
2022/02/11 08:19:48;;;;;;;;;;;4.90;99.90;;;;;;5197648;27;43969;-81
2022/02/11 08:22:16;;;;;;;;;;;5.00;99.90;;;;;;5196924;27;42548;-81
2022/02/11 08:24:44;;;;;;;;;;;5.00;99.90;;;;;;5216483;27;44204;-81
2022/02/11 08:27:13;;;;;;;;;;;5.00;99.90;;;;;;5215880;27;44267;-81
2022/02/11 08:29:41;;;;;;;;;;;5.00;99.90;;;;;;5197053;27;42612;-81
2022/02/11 08:32:09;;;;;;;;;;;5.00;99.90;;;;;;5197243;27;44127;-81
2022/02/11 08:34:36;;;;;;;;;;;5.00;99.90;;;;;;5215859;27;43975;-81
2022/02/11 08:37:04;;;;;;;;;;;5.00;99.90;;;;;;5197013;27;44121;-81
2022/02/11 08:39:34;;;;;;;;;;;4.90;99.90;;;;;;5196973;27;43333;-81
2022/02/11 08:42:02;;;;;;;;;;;4.90;99.90;;;;;;5196999;27;44355;-81
2022/02/11 08:44:29;;;;;;;;;;;4.90;99.90;;;;;;5216489;27;44275;-81
2022/02/11 08:46:56;;;;;;;;;;;5.00;99.90;;;;;;5197190;27;44088;-81
2022/02/11 08:49:23;;;;;;;;;;;5.00;99.90;;;;;;5196896;27;42575;-81
2022/02/11 08:51:51;;;;;;;;;;;5.00;99.90;;;;;;5196888;27;44158;-81
2022/02/11 08:54:18;;;;;;;;;;;5.00;99.90;;;;;;5215545;27;45508;-81
2022/02/11 08:56:45;;;;;;;;;;;5.00;99.90;;;;;;5196963;27;43526;-81
2022/02/11 08:59:12;;;;;;;;;;;4.90;99.90;;;;;;5197524;27;44404;-81
2022/02/11 09:01:39;;;;;;;;;;;5.00;99.90;;;;;;5215951;27;44375;-81
2022/02/11 09:04:07;;;;;;;;;;;5.00;99.90;;;;;;5197545;27;43912;-81
2022/02/11 09:06:35;;;;;;;;;;;5.00;99.90;;;;;;5196773;27;45877;-81
2022/02/11 09:09:04;;;;;;;;;;;5.00;99.90;;;;;;5215564;27;45584;-81
2022/02/11 09:11:31;;;;;;;;;;;5.00;99.90;;;;;;5196790;27;42999;-81
2022/02/11 09:14:01;;;;;;;;;;;5.00;99.90;;;;;;5197890;27;44272;-81
2022/02/11 09:16:30;;;;;;;;;;;5.00;99.90;;;;;;5196806;27;42987;-81
2022/02/11 09:18:57;;;;;;;;;;;5.00;99.90;;;;;;5196676;27;44439;-81
2022/02/11 09:21:24;;;;;;;;;;;5.00;99.90;;;;;;5196712;27;42997;-81
2022/02/11 09:23:52;;;;;;;;;;;5.00;99.90;;;;;;5215491;27;43306;-81
2022/02/11 09:26:19;;;;;;;;;;;5.00;99.90;;;;;;5197298;27;44087;-81
2022/02/11 09:28:46;;;;;;;;;;;5.00;99.90;;;;;;5196660;27;44774;-81
2022/02/11 09:31:13;;;;;;;;;;;5.00;99.90;;;;;;5197239;27;43576;-81
2022/02/11 09:33:40;;;;;;;;;;;5.10;99.90;;;;;;5196480;27;44136;-81
2022/02/11 09:36:08;;;;;;;;;;;5.00;99.90;;;;;;5196659;27;44262;-81
2022/02/11 09:38:36;;;;;;;;;;;5.00;99.90;;;;;;5196493;27;45925;-81
2022/02/11 09:41:03;;;;;;;;;;;5.00;99.90;;;;;;5215677;27;42897;-81
2022/02/11 09:43:35;;;;;;;;;;;5.00;99.90;;;;;;5197447;27;44638;-81
2022/02/11 09:46:04;;;;;;;;;;;5.00;99.90;;;;;;5215257;27;43252;-81
2022/02/11 09:48:30;;;;;;;;;;;5.10;99.90;;;;;;5215931;27;43981;-81
2022/02/11 09:50:56;;;;;;;;;;;5.10;99.90;;;;;;5198000;27;19992;-81
2022/02/11 09:53:29;;;;;;;;;;;5.10;99.90;;;;;;5197444;27;43602;-82
2022/02/11 09:55:56;;;;;;;;;;;5.10;99.90;;;;;;5196691;27;44064;-81
2022/02/11 09:58:24;;;;;;;;;;;5.10;99.90;;;;;;5196531;27;45256;-81
2022/02/11 10:00:52;;;;;;;;;;;5.10;99.90;;;;;;5196525;27;44006;-81
2022/02/11 10:03:26;;;;;;;;;;;5.10;99.90;;;;;;5196370;27;43290;-81
2022/02/11 10:05:57;;;;;;;;;;;5.10;99.90;;;;;;5196564;27;43017;-81
2022/02/11 10:08:25;;;;;;;;;;;5.10;99.90;;;;;;5196620;27;43796;-81
2022/02/11 10:10:54;;;;;;;;;;;5.10;99.90;;;;;;5196326;27;45212;-81
2022/02/11 10:13:25;;;;;;;;;;;5.10;99.90;;;;;;5196357;27;43049;-81
2022/02/11 10:16:16;;;;;;;;;;;5.20;99.90;;;;;;5197329;27;45314;-81
2022/02/11 10:18:45;;;;;;;;;;;5.10;99.90;;;;;;5197035;27;43265;-81
2022/02/11 10:21:20;;;;;;;;;;;5.20;99.90;;;;;;5196516;27;43091;-81
2022/02/11 10:23:50;;;;;;;;;;;5.20;99.90;;;;;;5196825;27;44057;-81
2022/02/11 10:26:18;;;;;;;;;;;5.20;99.90;;;;;;5196368;27;43808;-81
2022/02/11 10:28:47;;;;;;;;;;;5.20;99.90;;;;;;5215041;27;43989;-81
2022/02/11 10:31:19;;;;;;;;;;;5.20;99.90;;;;;;5196347;27;43893;-81
2022/02/11 10:33:47;;;;;;;;;;;5.20;99.90;;;;;;5215316;27;43188;-81
2022/02/11 10:36:18;;;;;;;;;;;5.20;99.90;;;;;;5197219;27;44836;-81
2022/02/11 10:39:08;;;;;;;;;;;5.20;99.90;;;;;;5199992;27;45604;-81
2022/02/11 10:41:37;;;;;;;;;;;5.20;99.90;;;;;;5215071;27;43059;-81
2022/02/11 10:44:14;;;;;;;;;;;5.20;99.90;;;;;;5195855;27;44624;-81
2022/02/11 10:46:44;;;;;;;;;;;5.20;99.90;;;;;;5214962;27;43249;-82
2022/02/11 10:49:12;;;;;;;;;;;5.20;99.90;;;;;;5196480;27;44182;-82
2022/02/11 10:51:41;;;;;;;;;;;5.20;99.90;;;;;;5196927;27;43940;-81
2022/02/11 10:54:22;;;;;;;;;;;5.20;99.90;;;;;;5196230;27;42794;-81
2022/02/11 10:56:54;;;;;;;;;;;5.20;99.90;;;;;;5197262;27;20325;-81
2022/02/11 10:59:27;;;;;;;;;;;5.20;99.90;;;;;;5215396;27;45766;-81
2022/02/11 11:01:55;;;;;;;;;;;5.20;99.90;;;;;;5192352;27;43890;-81
2022/02/11 11:04:23;;;;;;;;;;;5.20;99.90;;;;;;5193252;27;44038;-81
2022/02/11 11:06:50;;;;;;;;;;;5.20;99.90;;;;;;5193678;27;43993;-81
2022/02/11 11:09:18;;;;;;;;;;;5.20;99.90;;;;;;5192392;27;43955;-81
2022/02/11 11:11:45;;;;;;;;;;;5.20;99.90;;;;;;5193665;27;43931;-81
2022/02/11 11:14:13;;;;;;;;;;;5.20;99.90;;;;;;5192392;27;45737;-81
2022/02/11 11:16:43;;;;;;;;;;;5.20;99.90;;;;;;5193950;27;43537;-81
2022/02/11 11:19:11;;;;;;;;;;;5.20;99.90;;;;;;5192523;27;44202;-81
2022/02/11 11:21:43;;;;;;;;;;;5.30;99.90;;;;;;5192246;27;45763;-81
2022/02/11 11:24:11;;;;;;;;;;;5.30;99.90;;;;;;5194211;27;44860;-81
2022/02/11 11:26:42;;;;;;;;;;;5.30;99.90;;;;;;5192299;27;43526;-81
2022/02/11 11:29:09;;;;;;;;;;;5.30;99.90;;;;;;5193688;27;44250;-81
2022/02/11 11:31:37;;;;;;;;;;;5.30;99.90;;;;;;5192363;27;42708;-81
2022/02/11 11:34:16;;;;;;;;;;;5.40;99.90;;;;;;5194331;27;43903;-81
2022/02/11 11:36:47;;;;;;;;;;;5.40;99.90;;;;;;5193680;27;44174;-81
2022/02/11 11:39:15;;;;;;;;;;;5.40;99.90;;;;;;5192327;27;43285;-81
2022/02/11 11:41:42;;;;;;;;;;;5.40;99.90;;;;;;5193796;27;44259;-81
2022/02/11 11:44:16;;;;;;;;;;;5.40;99.90;;;;;;5192295;27;43300;-81
2022/02/11 11:46:47;;;;;;;;;;;5.50;99.90;;;;;;5193516;27;42758;-81
2022/02/11 11:49:18;;;;;;;;;;;5.50;99.90;;;;;;5193588;27;43932;-81
2022/02/11 11:51:45;;;;;;;;;;;5.50;99.90;;;;;;5192439;27;44543;-82
2022/02/11 11:54:21;;;;;;;;;;;5.50;99.90;;;;;;5193638;27;43363;-82
2022/02/11 11:57:07;;;;;;;;;;;5.60;99.90;;;;;;5193926;27;43533;-82
2022/02/11 11:59:36;;;;;;;;;;;5.60;99.90;;;;;;5193673;27;42714;-82
2022/02/11 12:02:10;;;;;;;;;;;5.60;99.90;;;;;;5193310;27;42594;-82
2022/02/11 12:04:43;;;;;;;;;;;5.60;99.90;;;;;;5193449;27;44141;-82
2022/02/11 12:07:16;;;;;;;;;;;5.60;99.90;;;;;;5194906;27;44275;-82
2022/02/11 12:09:48;;;;;;;;;;;5.60;99.90;;;;;;5193934;27;43303;-81
2022/02/11 12:12:18;;;;;;;;;;;5.60;99.90;;;;;;5194807;27;43915;-82
2022/02/11 12:14:48;;;;;;;;;;;5.60;99.90;;;;;;5194311;27;43009;-82
2022/02/11 12:17:17;;;;;;;;;;;5.60;99.90;;;;;;5194017;27;44771;-82
2022/02/11 12:19:45;;;;;;;;;;;5.60;99.90;;;;;;5193587;27;44263;-81
2022/02/11 12:22:13;;;;;;;;;;;5.60;99.90;;;;;;5193533;27;43520;-82
2022/02/11 12:27:33;;;;;;;;;;;5.60;99.90;;;;;;5195309;27;43948;-82
2022/02/11 12:30:05;;;;;;;;;;;5.60;99.90;;;;;;5194794;27;20018;-82
2022/02/11 12:32:46;;;;;;;;;;;5.60;99.90;;;;;;5193577;27;43120;-81
2022/02/11 12:35:13;;;;;;;;;;;5.60;99.90;;;;;;5193274;27;43179;-82
2022/02/11 12:37:42;;;;;;;;;;;5.60;99.90;;;;;;5193137;27;44533;-82
2022/02/11 12:40:13;;;;;;;;;;;5.60;99.90;;;;;;5193603;27;42377;-82
2022/02/11 12:42:40;;;;;;;;;;;5.60;99.90;;;;;;5195143;27;43895;-82
2022/02/11 12:45:09;;;;;;;;;;;5.60;99.90;;;;;;5193216;27;44283;-81
2022/02/11 12:47:36;;;;;;;;;;;5.70;99.90;;;;;;5193229;27;44160;-82
2022/02/11 12:50:05;;;;;;;;;;;5.70;99.90;;;;;;5193440;27;43669;-82
2022/02/11 12:52:36;;;;;;;;;;;5.70;99.90;;;;;;5193807;27;43530;-82
2022/02/11 12:55:10;;;;;;;;;;;5.80;99.90;;;;;;5193275;27;42793;-82
2022/02/11 12:57:42;;;;;;;;;;;5.80;99.90;;;;;;5193226;27;42617;-82
2022/02/11 13:00:14;;;;;;;;;;;5.80;99.90;;;;;;5195392;27;20003;-82
2022/02/11 13:02:47;;;;;;;;;;;5.80;99.90;;;;;;5192963;27;43470;-82
2022/02/11 13:05:16;;;;;;;;;;;5.80;99.90;;;;;;5195171;27;45355;-82
2022/02/11 13:07:44;;;;;;;;;;;5.90;99.90;;;;;;5193495;27;44191;-82
2022/02/11 13:10:17;;;;;;;;;;;5.90;99.90;;;;;;5192964;27;45004;-82
2022/02/11 13:12:44;;;;;;;;;;;5.90;99.90;;;;;;5195260;27;43229;-82
2022/02/11 13:15:13;;;;;;;;;;;6.00;99.90;;;;;;5194387;27;42349;-82
2022/02/11 13:17:41;;;;;;;;;;;6.00;99.90;;;;;;5193516;27;44713;-82
2022/02/11 13:20:10;;;;;;;;;;;6.00;99.90;;;;;;5194343;27;43523;-82
2022/02/11 13:22:39;;;;;;;;;;;6.10;99.90;;;;;;5193413;27;44676;-82
2022/02/11 13:25:07;;;;;;;;;;;6.10;99.90;;;;;;5192918;27;43556;-82
2022/02/11 13:27:45;;;;;;;;;;;6.10;99.90;;;;;;5193408;27;43520;-82
2022/02/11 13:30:14;;;;;;;;;;;6.10;99.90;;;;;;5194137;27;20022;-82
2022/02/11 13:32:41;;;;;;;;;;;6.10;99.90;;;;;;5194680;27;43533;-82
2022/02/11 13:35:09;;;;;;;;;;;6.10;99.90;;;;;;5193080;27;42915;-82
2022/02/11 13:37:45;;;;;;;;;;;6.10;99.90;;;;;;5193057;27;43212;-82
2022/02/11 13:40:21;;;;;;;;;;;6.10;99.90;;;;;;5193577;27;44184;-82
2022/02/11 13:42:55;;;;;;;;;;;6.10;99.90;;;;;;5193300;27;44662;-82
2022/02/11 13:45:23;;;;;;;;;;;6.10;99.90;;;;;;5194413;27;42882;-82
2022/02/11 13:48:01;;;;;;;;;;;6.10;99.90;;;;;;5193311;27;46161;-82
2022/02/11 13:50:29;;;;;;;;;;;6.10;99.90;;;;;;5192722;27;43499;-82
2022/02/11 13:53:03;;;;;;;;;;;6.20;99.90;;;;;;5194264;27;43348;-82
2022/02/11 13:55:31;;;;;;;;;;;6.10;99.90;;;;;;5193284;27;44303;-82
2022/02/11 13:58:14;;;;;;;;;;;6.20;99.90;;;;;;5194227;27;44089;-82
2022/02/11 14:00:42;;;;;;;;;;;6.10;99.90;;;;;;5193051;27;44033;-82
2022/02/11 14:03:18;;;;;;;;;;;6.20;99.90;;;;;;5192765;27;43322;-82
2022/02/11 14:05:48;;;;;;;;;;;6.20;99.90;;;;;;5193463;27;45158;-82
2022/02/11 14:08:15;;;;;;;;;;;6.20;99.90;;;;;;5192557;27;43688;-82
2022/02/11 14:10:46;;;;;;;;;;;6.20;99.90;;;;;;5193354;27;43355;-81
2022/02/11 14:13:14;;;;;;;;;;;6.30;99.90;;;;;;5192522;27;44606;-82
2022/02/11 14:15:41;;;;;;;;;;;6.30;99.90;;;;;;5193069;27;45404;-82
2022/02/11 14:18:08;;;;;;;;;;;6.30;99.90;;;;;;5194118;27;44223;-81
2022/02/11 14:20:37;;;;;;;;;;;6.30;99.90;;;;;;5192585;27;43379;-81
2022/02/11 14:23:17;;;;;;;;;;;6.30;99.90;;;;;;5192543;27;45675;-81
2022/02/11 14:25:46;;;;;;;;;;;6.40;99.90;;;;;;5193178;27;46106;-82
2022/02/11 14:28:14;;;;;;;;;;;6.40;99.90;;;;;;5192553;27;44301;-81
2022/02/11 14:30:42;;;;;;;;;;;6.40;99.90;;;;;;5193529;27;19989;-81
2022/02/11 14:33:11;;;;;;;;;;;6.40;99.90;;;;;;5193771;27;44261;-81
2022/02/11 14:35:38;;;;;;;;;;;6.50;99.90;;;;;;5193855;27;43534;-81
2022/02/11 14:38:05;;;;;;;;;;;6.50;99.90;;;;;;5193867;27;43228;-81
2022/02/11 14:40:32;;;;;;;;;;;6.50;99.90;;;;;;5193101;27;45458;-81
2022/02/11 14:43:01;;;;;;;;;;;6.50;99.90;;;;;;5192474;27;42435;-81
2022/02/11 14:45:28;;;;;;;;;;;6.50;99.90;;;;;;5193283;27;44255;-81
2022/02/11 14:47:55;;;;;;;;;;;6.50;99.90;;;;;;5193383;27;42898;-81
2022/02/11 14:50:22;;;;;;;;;;;6.60;99.90;;;;;;5192567;27;42989;-81
2022/02/11 14:52:50;;;;;;;;;;;6.60;99.90;;;;;;5192987;27;46031;-81
2022/02/11 14:55:17;;;;;;;;;;;6.60;99.90;;;;;;5192371;27;44289;-81
2022/02/11 14:57:44;;;;;;;;;;;6.60;99.90;;;;;;5193680;27;44861;-81
2022/02/11 15:00:11;;;;;;;;;;;6.60;99.90;;;;;;5192569;27;43036;-81
2022/02/11 15:02:41;;;;;;;;;;;6.60;99.90;;;;;;5193515;27;42906;-81
2022/02/11 15:05:08;;;;;;;;;;;6.60;99.90;;;;;;5192959;27;44618;-81
2022/02/11 15:07:38;;;;;;;;;;;6.70;99.90;;;;;;5193682;27;42585;-82
2022/02/11 15:10:05;;;;;;;;;;;6.60;99.90;;;;;;5193659;27;43352;-81
2022/02/11 15:12:33;;;;;;;;;;;6.70;99.90;;;;;;5192335;27;43026;-81
2022/02/11 15:15:00;;;;;;;;;;;6.60;99.90;;;;;;5192486;27;43042;-81
2022/02/11 15:17:27;;;;;;;;;;;6.60;99.90;;;;;;5192865;27;45463;-81
2022/02/11 15:19:54;;;;;;;;;;;6.70;99.90;;;;;;5194288;27;43529;-81
2022/02/11 15:22:22;;;;;;;;;;;6.70;99.90;;;;;;5192948;27;43527;-81
2022/02/11 15:24:50;;;;;;;;;;;6.70;99.90;;;;;;5193473;27;45630;-81
2022/02/11 15:27:17;;;;;;;;;;;6.70;99.90;;;;;;5193688;27;43345;-81
2022/02/11 15:29:45;;;;;;;;;;;6.70;99.90;;;;;;5192311;27;43274;-81
2022/02/11 15:32:14;;;;;;;;;;;6.70;99.90;;;;;;5194981;27;43780;-81
2022/02/11 15:34:41;;;;;;;;;;;6.70;99.90;;;;;;5193727;27;43526;-81
2022/02/11 15:37:12;;;;;;;;;;;6.70;99.90;;;;;;5194317;27;45760;-81
2022/02/11 15:39:41;;;;;;;;;;;6.70;99.90;;;;;;5193815;27;44644;-81
2022/02/11 15:42:09;;;;;;;;;;;6.70;99.90;;;;;;5193692;27;43349;-81
2022/02/11 15:44:36;;;;;;;;;;;6.70;99.90;;;;;;5193724;27;44258;-81
2022/02/11 15:47:03;;;;;;;;;;;6.70;99.90;;;;;;5193727;27;42954;-81
2022/02/11 15:49:30;;;;;;;;;;;6.70;99.90;;;;;;5193591;27;43239;-81
2022/02/11 15:51:57;;;;;;;;;;;6.80;99.90;;;;;;5194875;27;43950;-81
2022/02/11 15:54:29;;;;;;;;;;;6.80;99.90;;;;;;5195164;27;44123;-81
2022/02/11 15:56:56;;;;;;;;;;;6.80;99.90;;;;;;5193877;27;42709;-81
2022/02/11 15:59:23;;;;;;;;;;;6.80;99.90;;;;;;5194022;27;44834;-81
2022/02/11 16:01:51;;;;;;;;;;;6.80;99.90;;;;;;5193374;27;42633;-81
2022/02/11 16:04:18;;;;;;;;;;;6.80;99.90;;;;;;5194883;27;46021;-81
2022/02/11 16:06:45;;;;;;;;;;;6.80;99.90;;;;;;5195300;27;44453;-81
2022/02/11 16:09:12;;;;;;;;;;;6.80;99.90;;;;;;5193402;27;43409;-81
2022/02/11 16:11:39;;;;;;;;;;;6.80;99.90;;;;;;5194697;27;45779;-81
2022/02/11 16:14:09;;;;;;;;;;;6.80;99.90;;;;;;5193599;27;43926;-81
2022/02/11 16:16:37;;;;;;;;;;;6.80;99.90;;;;;;5193440;27;44036;-81
2022/02/11 16:19:04;;;;;;;;;;;6.80;99.90;;;;;;5194017;27;44266;-81
2022/02/11 16:21:31;;;;;;;;;;;6.80;99.90;;;;;;5193548;27;43546;-81
2022/02/11 16:23:58;;;;;;;;;;;6.80;99.90;;;;;;5194620;27;44770;-81
2022/02/11 16:26:27;;;;;;;;;;;6.80;99.90;;;;;;5194825;27;44325;-81
2022/02/11 16:28:54;;;;;;;;;;;6.70;99.90;;;;;;5194183;27;42762;-81
2022/02/11 16:31:24;;;;;;;;;;;6.70;99.90;;;;;;5195710;27;20013;-81
2022/02/11 16:33:52;;;;;;;;;;;6.80;99.90;;;;;;5193142;27;44104;-81
2022/02/11 16:36:19;;;;;;;;;;;6.80;99.90;;;;;;5193875;27;43907;-81
2022/02/11 16:38:49;;;;;;;;;;;6.80;99.90;;;;;;5193828;27;45373;-81
2022/02/11 16:41:18;;;;;;;;;;;6.80;99.90;;;;;;5193376;27;43859;-81
2022/02/11 16:43:45;;;;;;;;;;;6.70;99.90;;;;;;5194448;27;43915;-81
2022/02/11 16:46:13;;;;;;;;;;;6.70;99.90;;;;;;5193199;27;42378;-81
2022/02/11 16:48:40;;;;;;;;;;;6.80;99.90;;;;;;5193305;27;42398;-81
2022/02/11 16:51:07;;;;;;;;;;;6.80;99.90;;;;;;5195434;27;44195;-81
2022/02/11 16:53:39;;;;;;;;;;;6.80;99.90;;;;;;5193388;27;43336;-81
2022/02/11 16:56:06;;;;;;;;;;;6.80;99.90;;;;;;5193218;27;43208;-81
2022/02/11 16:58:36;;;;;;;;;;;6.80;99.90;;;;;;5193318;27;43577;-81
2022/02/11 17:01:04;;;;;;;;;;;6.70;99.90;;;;;;5194765;27;43230;-81
2022/02/11 17:03:31;;;;;;;;;;;6.80;99.90;;;;;;5193179;27;43053;-81
2022/02/11 17:05:58;;;;;;;;;;;6.80;99.90;;;;;;5193148;27;42918;-80
2022/02/11 17:08:25;;;;;;;;;;;6.80;99.90;;;;;;5194873;27;43984;-81
2022/02/11 17:10:56;;;;;;;;;;;6.80;99.90;;;;;;5192920;27;44416;-81
2022/02/11 17:13:23;;;;;;;;;;;6.70;99.90;;;;;;5193592;27;45720;-81
2022/02/11 17:15:51;;;;;;;;;;;6.70;99.90;;;;;;5194582;27;43585;-81
2022/02/11 17:18:20;;;;;;;;;;;6.80;99.90;;;;;;5193035;27;43522;-81
2022/02/11 17:20:47;;;;;;;;;;;6.70;99.90;;;;;;5193024;27;43554;-81
2022/02/11 17:23:17;;;;;;;;;;;6.70;99.90;;;;;;5194320;27;43534;-81
2022/02/11 17:25:45;;;;;;;;;;;6.70;99.90;;;;;;5193575;27;45802;-81
2022/02/11 17:28:14;;;;;;;;;;;6.70;99.90;;;;;;5194106;27;44870;-81
2022/02/11 17:30:42;;;;;;;;;;;6.70;99.90;;;;;;5193461;27;43697;-81
2022/02/11 17:33:09;;;;;;;;;;;6.80;99.90;;;;;;5192884;27;43290;-81
2022/02/11 17:35:36;;;;;;;;;;;6.70;99.90;;;;;;5193639;27;43526;-81
2022/02/11 17:38:04;;;;;;;;;;;6.70;99.90;;;;;;5192953;27;42780;-81
2022/02/11 17:40:31;;;;;;;;;;;6.70;99.90;;;;;;5192994;27;43071;-81
2022/02/11 17:42:59;;;;;;;;;;;6.70;99.90;;;;;;5192664;27;44095;-81
2022/02/11 17:45:26;;;;;;;;;;;6.70;99.90;;;;;;5192824;27;43334;-81
2022/02/11 17:47:54;;;;;;;;;;;6.70;99.90;;;;;;5193403;27;44251;-81
2022/02/11 17:50:21;;;;;;;;;;;6.70;99.90;;;;;;5192720;27;43049;-81
2022/02/11 17:52:48;;;;;;;;;;;6.70;99.90;;;;;;5192625;27;44155;-81
2022/02/11 17:55:15;;;;;;;;;;;6.70;99.90;;;;;;5194581;27;43877;-80
2022/02/11 17:57:42;;;;;;;;;;;6.70;99.90;;;;;;5192760;27;44247;-81
2022/02/11 18:00:10;;;;;;;;;;;6.60;99.90;;;;;;5193951;27;45802;-81
2022/02/11 18:02:37;;;;;;;;;;;6.60;99.90;;;;;;5193881;27;44322;-81
2022/02/11 18:05:04;;;;;;;;;;;6.70;99.90;;;;;;5194926;27;44025;-81
2022/02/11 18:07:38;;;;;;;;;;;6.60;99.90;;;;;;5192732;27;44227;-81
2022/02/11 18:10:06;;;;;;;;;;;6.60;99.90;;;;;;5193125;27;44711;-81
2022/02/11 18:12:34;;;;;;;;;;;6.60;99.90;;;;;;5192982;27;42486;-81
2022/02/11 18:15:01;;;;;;;;;;;6.60;99.90;;;;;;5193233;27;44742;-81
2022/02/11 18:17:30;;;;;;;;;;;6.60;99.90;;;;;;5193835;27;45066;-81
2022/02/11 18:20:01;;;;;;;;;;;6.60;99.90;;;;;;5194451;27;44870;-81
2022/02/11 18:22:29;;;;;;;;;;;6.60;99.90;;;;;;5193286;27;43276;-81
2022/02/11 18:24:57;;;;;;;;;;;6.50;99.90;;;;;;5193997;27;42746;-81
2022/02/11 18:27:25;;;;;;;;;;;6.50;99.90;;;;;;5194173;27;43820;-81
2022/02/11 18:29:52;;;;;;;;;;;6.60;99.90;;;;;;5192630;27;43228;-81
2022/02/11 18:32:19;;;;;;;;;;;6.50;99.90;;;;;;5194127;27;42294;-81
2022/02/11 18:34:46;;;;;;;;;;;6.50;99.90;;;;;;5193166;27;44259;-81
2022/02/11 18:37:13;;;;;;;;;;;6.50;99.90;;;;;;5192570;27;43328;-81